createdAt,value
2019-05-14T00:00:41.107Z,103095.62
2019-05-14T00:03:48.191Z,103094.77
2019-05-14T00:06:55.670Z,103095.14
2019-05-14T00:10:03.384Z,103092.13
2019-05-14T00:13:21.532Z,103098.51
2019-05-14T00:16:31.414Z,103102.27
2019-05-14T00:19:38.520Z,103103.06
2019-05-14T00:22:44.248Z,103101.75
2019-05-14T00:25:52.267Z,103101.27
2019-05-14T00:29:01.694Z,103091.89
2019-05-14T00:32:11.174Z,103098.25
2019-05-14T00:35:17.781Z,103093.95
2019-05-14T00:38:25.263Z,103094.33
2019-05-14T00:41:32.924Z,103085.33
2019-05-14T00:44:57.725Z,103090.02
2019-05-14T00:48:12.949Z,103081.90
2019-05-14T00:51:29.412Z,103081.85
2019-05-14T00:54:46.110Z,103083.08
2019-05-14T00:58:02.822Z,103085.09
2019-05-14T01:01:25.570Z,103081.68
2019-05-14T01:04:43.006Z,103087.19
2019-05-14T01:07:51.401Z,103099.84
2019-05-14T01:11:01.409Z,103091.69
2019-05-14T01:14:08.344Z,103091.21
2019-05-14T01:17:15.903Z,103088.15
2019-05-14T01:20:33.615Z,103084.75
2019-05-14T01:23:53.330Z,103085.16
2019-05-14T01:27:12.099Z,103091.86
2019-05-14T01:30:28.471Z,103090.55
2019-05-14T01:33:34.164Z,103086.61
2019-05-14T01:37:02.231Z,103087.87
2019-05-14T01:40:18.167Z,103090.82
2019-05-14T01:43:34.726Z,103087.84
2019-05-14T01:46:51.664Z,103083.07
2019-05-14T01:50:11.226Z,103082.17
2019-05-14T01:53:17.846Z,103092.67
2019-05-14T01:56:25.250Z,103087.06
2019-05-14T01:59:32.842Z,103092.95
2019-05-14T02:02:41.783Z,103096.73
2019-05-14T02:05:58.543Z,103094.20
2019-05-14T02:09:21.670Z,103087.70
2019-05-14T02:12:31.389Z,103100.33
2019-05-14T02:15:40.616Z,103090.52
2019-05-14T02:18:47.221Z,103095.98
2019-05-14T02:21:54.968Z,103089.97
2019-05-14T02:25:12.940Z,103083.19
2019-05-14T02:28:22.112Z,103086.06
2019-05-14T02:31:39.348Z,103093.63
2019-05-14T02:34:49.701Z,103097.78
2019-05-14T02:37:59.354Z,103091.81
2019-05-14T02:41:05.172Z,103093.44
2019-05-14T02:44:22.022Z,103089.56
2019-05-14T02:47:39.914Z,103087.34
2019-05-14T02:50:49.510Z,103088.16
2019-05-14T02:53:59.092Z,103085.98
2019-05-14T02:57:09.894Z,103088.44
2019-05-14T03:00:15.204Z,103080.30
2019-05-14T03:03:22.661Z,103079.84
2019-05-14T03:06:39.760Z,103072.66
2019-05-14T03:09:50.315Z,103074.24
2019-05-14T03:12:58.494Z,103072.08
2019-05-14T03:16:25.991Z,103075.06
2019-05-14T03:19:32.054Z,103067.78
2019-05-14T03:23:01.801Z,103073.20
2019-05-14T03:26:09.616Z,103073.99
2019-05-14T03:29:26.311Z,103073.95
2019-05-14T03:32:33.569Z,103080.20
2019-05-14T03:35:49.507Z,103075.05
2019-05-14T03:38:59.689Z,103067.45
2019-05-14T03:42:19.302Z,103067.05
2019-05-14T03:45:25.960Z,103074.15
2019-05-14T03:48:33.404Z,103078.73
2019-05-14T03:51:40.798Z,103077.00
2019-05-14T03:54:49.689Z,103076.98
2019-05-14T03:58:00.932Z,103077.05
2019-05-14T04:01:09.677Z,103083.70
2019-05-14T04:04:19.398Z,103088.37
2019-05-14T04:07:30.062Z,103087.87
2019-05-14T04:10:39.119Z,103086.97
2019-05-14T04:13:49.703Z,103090.73
2019-05-14T04:17:08.885Z,103086.53
2019-05-14T04:20:09.394Z,103085.67
2019-05-14T04:23:28.724Z,103082.33
2019-05-14T04:26:53.235Z,103089.89
2019-05-14T04:29:43.978Z,103097.13
2019-05-14T04:32:52.590Z,103097.13
2019-05-14T04:36:00.455Z,103098.35
2019-05-14T04:39:19.587Z,103098.45
2019-05-14T04:42:35.329Z,103090.91
2019-05-14T04:45:52.137Z,103088.81
2019-05-14T04:49:09.833Z,103081.63
2019-05-14T04:52:20.492Z,103089.64
2019-05-14T04:55:29.487Z,103092.69
2019-05-14T04:58:45.020Z,103082.98
2019-05-14T05:02:01.561Z,103094.50
2019-05-14T05:05:19.664Z,103088.66
2019-05-14T05:08:39.493Z,103088.27
2019-05-14T05:11:49.526Z,103087.93
2019-05-14T05:14:58.634Z,103096.46
2019-05-14T05:18:05.578Z,103091.86
2019-05-14T05:21:22.038Z,103082.31
2019-05-14T05:24:41.261Z,103092.66
2019-05-14T05:27:48.833Z,103094.42
2019-05-14T05:31:06.153Z,103093.38
2019-05-14T05:34:12.369Z,103090.55
2019-05-14T05:37:19.796Z,103095.44
2019-05-14T05:40:28.770Z,103099.05
2019-05-14T05:43:35.034Z,103099.42
2019-05-14T05:46:43.224Z,103097.92
2019-05-14T05:49:50.139Z,103091.36
2019-05-14T05:52:58.545Z,103096.23
2019-05-14T05:56:08.747Z,103096.42
2019-05-14T05:59:15.186Z,103096.99
2019-05-14T06:02:22.451Z,103098.91
2019-05-14T06:05:29.879Z,103096.48
2019-05-14T06:08:48.882Z,103093.26
2019-05-14T06:12:10.619Z,103103.56
2019-05-14T06:15:45.724Z,103104.13
2019-05-14T06:18:53.604Z,103104.64
2019-05-14T06:22:10.297Z,103104.28
2019-05-14T06:25:20.886Z,103100.97
2019-05-14T06:28:36.016Z,103100.64
2019-05-14T06:31:55.747Z,103097.70
2019-05-14T06:35:12.505Z,103096.91
2019-05-14T06:38:29.573Z,103091.81
2019-05-14T06:41:42.422Z,103091.40
2019-05-14T06:44:46.206Z,103091.42
2019-05-14T06:47:53.488Z,103094.02
2019-05-14T06:51:00.777Z,103102.95
2019-05-14T06:54:09.254Z,103099.53
2019-05-14T06:57:18.039Z,103112.28
2019-05-14T07:00:28.368Z,103111.78
2019-05-14T07:03:34.726Z,103109.59
2019-05-14T07:06:42.060Z,103107.77
2019-05-14T07:09:58.704Z,103111.05
2019-05-14T07:13:15.350Z,103109.20
2019-05-14T07:16:22.718Z,103107.43
2019-05-14T07:19:29.827Z,103108.13
2019-05-14T07:22:35.575Z,103109.73
2019-05-14T07:25:52.158Z,103100.95
2019-05-14T07:29:11.570Z,103093.91
2019-05-14T07:32:28.665Z,103102.20
2019-05-14T07:35:45.614Z,103099.14
2019-05-14T07:39:02.162Z,103100.30
2019-05-14T07:42:20.353Z,103099.66
2019-05-14T07:45:28.721Z,103095.28
2019-05-14T07:48:36.188Z,103090.84
2019-05-14T07:51:41.924Z,103087.19
2019-05-14T07:54:49.275Z,103086.70
2019-05-14T07:58:08.183Z,103095.14
2019-05-14T08:01:24.169Z,103091.91
2019-05-14T08:04:41.038Z,103089.83
2019-05-14T08:07:58.613Z,103089.89
2019-05-14T08:11:08.410Z,103091.63
2019-05-14T08:14:15.240Z,103081.13
2019-05-14T08:17:40.045Z,103080.07
2019-05-14T08:20:58.984Z,103080.78
2019-05-14T08:24:18.851Z,103069.61
2019-05-14T08:27:36.015Z,103069.40
2019-05-14T08:30:52.658Z,103068.41
2019-05-14T08:34:11.825Z,103062.89
2019-05-14T08:37:19.315Z,103055.97
2019-05-14T08:40:38.290Z,103054.59
2019-05-14T08:43:44.661Z,103056.19
2019-05-14T08:46:51.993Z,103047.33
2019-05-14T08:50:00.119Z,103048.72
2019-05-14T08:53:09.070Z,103047.81
2019-05-14T08:56:18.870Z,103046.61
2019-05-14T08:59:28.472Z,103042.78
2019-05-14T09:02:44.193Z,103046.47
2019-05-14T09:06:00.997Z,103046.55
2019-05-14T09:09:28.715Z,103043.55
2019-05-14T09:12:49.150Z,103037.77
2019-05-14T09:16:13.756Z,103031.37
2019-05-14T09:19:33.627Z,103031.74
2019-05-14T09:22:52.694Z,103028.28
2019-05-14T09:26:12.008Z,103031.62
2019-05-14T09:29:29.881Z,103021.41
2019-05-14T09:32:38.772Z,103020.11
2019-05-14T09:36:13.183Z,103013.45
2019-05-14T09:39:18.750Z,103023.13
2019-05-14T09:42:35.497Z,103029.18
2019-05-14T09:45:43.201Z,103031.16
2019-05-14T09:48:50.699Z,103021.17
2019-05-14T09:51:58.394Z,103021.23
2019-05-14T09:55:15.058Z,103022.29
2019-05-14T09:58:34.691Z,103016.45
2019-05-14T10:01:53.996Z,103016.70
2019-05-14T10:05:19.437Z,103007.67
2019-05-14T10:08:38.953Z,103006.24
2019-05-14T10:11:55.156Z,103001.17
2019-05-14T10:15:19.758Z,103003.39
2019-05-14T10:18:38.053Z,102998.07
2019-05-14T10:22:03.301Z,102997.36
2019-05-14T10:25:22.767Z,102990.00
2019-05-14T10:28:43.509Z,102979.19
2019-05-14T10:32:01.002Z,102978.69
2019-05-14T10:35:19.144Z,102981.09
2019-05-14T10:38:38.540Z,102978.19
2019-05-14T10:41:54.552Z,102972.36
2019-05-14T10:45:15.342Z,102970.05
2019-05-14T10:48:32.284Z,102974.45
2019-05-14T10:51:48.997Z,102970.29
2019-05-14T10:55:08.058Z,102967.86
2019-05-14T10:58:19.206Z,102970.58
2019-05-14T11:01:34.065Z,102966.85
2019-05-14T11:04:50.681Z,102969.67
2019-05-14T11:08:13.356Z,102961.06
2019-05-14T11:11:32.036Z,102961.06
2019-05-14T11:14:49.439Z,102965.95
2019-05-14T11:17:55.450Z,102959.58
2019-05-14T11:21:18.553Z,102952.61
2019-05-14T11:24:11.849Z,102955.31
2019-05-14T11:27:18.641Z,102949.95
2019-05-14T11:30:28.606Z,102948.38
2019-05-14T11:33:44.988Z,102941.69
2019-05-14T11:36:52.410Z,102941.80
2019-05-14T11:39:59.870Z,102934.77
2019-05-14T11:43:08.403Z,102936.73
2019-05-14T11:46:15.853Z,102930.00
2019-05-14T11:49:23.290Z,102933.64
2019-05-14T11:52:30.597Z,102924.80
2019-05-14T11:55:38.932Z,102921.99
2019-05-14T11:58:46.429Z,102919.34
2019-05-14T12:01:55.053Z,102912.82
2019-05-14T12:05:02.667Z,102905.88
2019-05-14T12:08:10.176Z,102910.34
2019-05-14T12:11:19.215Z,102908.26
2019-05-14T12:14:26.229Z,102905.66
2019-05-14T12:17:34.314Z,102890.53
2019-05-14T12:20:41.661Z,102891.52
2019-05-14T12:23:47.826Z,102896.06
2019-05-14T12:27:04.797Z,102884.68
2019-05-14T12:30:10.652Z,102887.84
2019-05-14T12:33:19.696Z,102883.19
2019-05-14T12:36:29.250Z,102879.70
2019-05-14T12:39:36.424Z,102872.69
2019-05-14T12:42:43.821Z,102873.03
2019-05-14T12:46:00.700Z,102864.41
2019-05-14T12:49:18.706Z,102861.64
2019-05-14T12:52:35.807Z,102867.58
2019-05-14T12:55:58.719Z,102855.86
2019-05-14T12:59:15.313Z,102848.37
2019-05-14T13:02:31.891Z,102848.89
2019-05-14T13:05:49.255Z,102850.48
2019-05-14T13:09:00.814Z,102847.98
2019-05-14T13:12:18.912Z,102853.16
2019-05-14T13:15:25.425Z,102850.24
2019-05-14T13:18:31.107Z,102847.02
2019-05-14T13:21:38.970Z,102835.81
2019-05-14T13:24:58.148Z,102829.45
2019-05-14T13:28:05.535Z,102825.95
2019-05-14T13:31:13.544Z,102832.16
2019-05-14T13:34:30.531Z,102823.60
2019-05-14T13:37:39.803Z,102830.74
2019-05-14T13:40:49.119Z,102837.07
2019-05-14T13:44:19.663Z,102823.55
2019-05-14T13:47:28.811Z,102813.00
2019-05-14T13:50:35.771Z,102820.11
2019-05-14T13:53:52.491Z,102804.77
2019-05-14T13:57:12.119Z,102799.07
2019-05-14T14:00:27.744Z,102800.04
2019-05-14T14:03:52.346Z,102791.36
2019-05-14T14:06:55.126Z,102788.70
2019-05-14T14:10:02.464Z,102785.38
2019-05-14T14:13:11.387Z,102795.30
2019-05-14T14:16:19.954Z,102785.18
2019-05-14T14:19:28.264Z,102788.67
2019-05-14T14:22:35.732Z,102786.93
2019-05-14T14:25:43.186Z,102782.85
2019-05-14T14:28:50.478Z,102784.66
2019-05-14T14:31:58.799Z,102783.29
2019-05-14T14:35:15.144Z,102789.71
2019-05-14T14:38:34.659Z,102789.59
2019-05-14T14:41:51.467Z,102777.67
2019-05-14T14:45:08.768Z,102774.36
2019-05-14T14:48:16.275Z,102778.79
2019-05-14T14:51:23.755Z,102769.70
2019-05-14T14:54:31.042Z,102772.05
2019-05-14T14:57:45.072Z,102768.34
2019-05-14T15:00:48.676Z,102762.87
2019-05-14T15:03:55.508Z,102769.46
2019-05-14T15:07:02.917Z,102762.89
2019-05-14T15:10:10.996Z,102768.84
2019-05-14T15:13:18.357Z,102771.05
2019-05-14T15:16:25.775Z,102765.53
2019-05-14T15:19:33.050Z,102766.13
2019-05-14T15:22:38.811Z,102759.27
2019-05-14T15:25:45.988Z,102760.22
2019-05-14T15:28:53.455Z,102766.05
2019-05-14T15:32:00.799Z,102766.34
2019-05-14T15:35:18.970Z,102752.83
2019-05-14T15:38:30.246Z,102766.00
2019-05-14T15:41:44.990Z,102754.89
2019-05-14T15:45:01.995Z,102756.75
2019-05-14T15:48:09.369Z,102755.37
2019-05-14T15:51:19.608Z,102753.80
2019-05-14T15:54:39.913Z,102752.11
2019-05-14T15:57:35.087Z,102750.66
2019-05-14T16:00:42.542Z,102748.27
2019-05-14T16:03:48.406Z,102748.88
2019-05-14T16:06:58.463Z,102749.52
2019-05-14T16:10:05.434Z,102743.16
2019-05-14T16:13:12.447Z,102727.77
2019-05-14T16:16:19.904Z,102732.10
2019-05-14T16:19:28.453Z,102724.80
2019-05-14T16:22:34.462Z,102722.66
2019-05-14T16:25:51.304Z,102712.69
2019-05-14T16:29:08.928Z,102716.91
2019-05-14T16:32:16.535Z,102709.78
2019-05-14T16:35:23.933Z,102722.20
2019-05-14T16:38:40.649Z,102716.51
2019-05-14T16:41:48.847Z,102714.95
2019-05-14T16:45:04.774Z,102705.66
2019-05-14T16:48:21.271Z,102702.52
2019-05-14T16:51:38.046Z,102707.23
2019-05-14T16:55:17.256Z,102709.82
2019-05-14T16:58:24.118Z,102713.70
2019-05-14T17:01:49.173Z,102708.36
2019-05-14T17:05:11.517Z,102709.33
2019-05-14T17:08:28.510Z,102703.63
2019-05-14T17:11:36.056Z,102701.79
2019-05-14T17:14:43.536Z,102713.61
2019-05-14T17:17:50.794Z,102704.03
2019-05-14T17:20:59.448Z,102691.61
2019-05-14T17:24:08.695Z,102698.56
2019-05-14T17:27:28.385Z,102697.96
2019-05-14T17:30:34.979Z,102704.66
2019-05-14T17:33:42.466Z,102704.75
2019-05-14T17:36:48.877Z,102701.09
2019-05-14T17:40:05.585Z,102701.03
2019-05-14T17:43:23.294Z,102698.83
2019-05-14T17:46:30.809Z,102700.77
2019-05-14T17:49:53.766Z,102698.09
2019-05-14T17:53:10.521Z,102694.92
2019-05-14T17:56:31.926Z,102690.80
2019-05-14T17:59:39.169Z,102693.16
2019-05-14T18:02:59.185Z,102680.30
2019-05-14T18:06:08.997Z,102682.28
2019-05-14T18:09:15.489Z,102686.39
2019-05-14T18:12:23.094Z,102684.57
2019-05-14T18:15:30.469Z,102677.11
2019-05-14T18:18:37.894Z,102676.56
2019-05-14T18:21:45.275Z,102672.62
2019-05-14T18:24:52.496Z,102668.69
2019-05-14T18:27:59.908Z,102669.53
2019-05-14T18:31:19.637Z,102663.66
2019-05-14T18:34:34.777Z,102669.09
2019-05-14T18:37:51.486Z,102670.94
2019-05-14T18:41:18.830Z,102661.30
2019-05-14T18:44:41.011Z,102654.27
2019-05-14T18:48:08.386Z,102659.30
2019-05-14T18:51:15.534Z,102655.30
2019-05-14T18:54:23.331Z,102656.76
2019-05-14T18:57:30.853Z,102656.14
2019-05-14T19:00:38.659Z,102658.91
2019-05-14T19:03:45.555Z,102657.00
2019-05-14T19:06:52.847Z,102654.64
2019-05-14T19:09:59.113Z,102656.14
2019-05-14T19:13:44.748Z,102652.82
2019-05-14T19:16:58.483Z,102643.25
2019-05-14T19:20:08.545Z,102657.55
2019-05-14T19:23:16.073Z,102661.13
2019-05-14T19:26:33.410Z,102658.38
2019-05-14T19:29:48.426Z,102655.02
2019-05-14T19:33:11.023Z,102658.20
2019-05-14T19:36:28.126Z,102658.80
2019-05-14T19:39:35.505Z,102662.82
2019-05-14T19:42:43.081Z,102665.52
2019-05-14T19:45:48.778Z,102667.37
2019-05-14T19:48:56.186Z,102665.79
2019-05-14T19:52:03.641Z,102661.61
2019-05-14T19:55:20.388Z,102669.41
2019-05-14T19:58:38.348Z,102665.27
2019-05-14T20:01:44.789Z,102664.13
2019-05-14T20:04:52.160Z,102661.70
2019-05-14T20:07:59.565Z,102667.38
2019-05-14T20:11:06.990Z,102669.62
2019-05-14T20:14:14.266Z,102663.69
2019-05-14T20:17:21.574Z,102668.89
2019-05-14T20:20:28.999Z,102663.89
2019-05-14T20:23:38.500Z,102655.84
2019-05-14T20:27:08.215Z,102644.84
2019-05-14T20:30:19.035Z,102638.11
2019-05-14T20:33:41.578Z,102643.27
2019-05-14T20:36:58.807Z,102646.33
2019-05-14T20:40:06.824Z,102642.98
2019-05-14T20:43:13.875Z,102646.03
2019-05-14T20:46:21.237Z,102651.23
2019-05-14T20:49:28.399Z,102649.16
2019-05-14T20:52:35.840Z,102648.37
2019-05-14T20:55:43.363Z,102646.70
2019-05-14T20:58:49.180Z,102647.61
2019-05-14T21:01:58.963Z,102648.94
2019-05-14T21:05:12.986Z,102651.52
2019-05-14T21:08:14.490Z,102649.00
2019-05-14T21:11:22.197Z,102646.05
2019-05-14T21:14:30.009Z,102649.53
2019-05-14T21:17:37.735Z,102646.56
2019-05-14T21:20:45.499Z,102645.34
2019-05-14T21:23:53.250Z,102643.22
2019-05-14T21:27:00.999Z,102639.86
2019-05-14T21:30:09.463Z,102638.19
2019-05-14T21:33:15.634Z,102637.36
2019-05-14T21:36:23.484Z,102639.95
2019-05-14T21:39:41.151Z,102633.14
2019-05-14T21:42:48.944Z,102634.89
2019-05-14T21:46:08.026Z,102634.50
2019-05-14T21:49:15.677Z,102632.84
2019-05-14T21:52:23.445Z,102630.28
2019-05-14T21:55:41.727Z,102621.33
2019-05-14T21:58:49.455Z,102626.90
2019-05-14T22:01:58.979Z,102620.55
2019-05-14T22:05:18.814Z,102615.86
2019-05-14T22:08:27.930Z,102619.28
2019-05-14T22:11:45.063Z,102614.63
2019-05-14T22:14:52.838Z,102615.50
2019-05-14T22:18:00.625Z,102613.79
2019-05-14T22:21:08.883Z,102607.02
2019-05-14T22:24:16.298Z,102609.98
2019-05-14T22:27:24.265Z,102613.40
2019-05-14T22:30:44.006Z,102611.72
2019-05-14T22:33:51.801Z,102614.72
2019-05-14T22:36:59.625Z,102616.00
2019-05-14T22:40:18.339Z,102608.74
2019-05-14T22:43:26.229Z,102610.48
2019-05-14T22:46:33.945Z,102609.19
2019-05-14T22:49:51.544Z,102601.55
2019-05-14T22:52:59.294Z,102599.42
2019-05-14T22:56:08.294Z,102601.98
2019-05-14T22:59:28.467Z,102595.17
2019-05-14T23:02:38.199Z,102599.86
2019-05-14T23:05:55.220Z,102592.63
2019-05-14T23:09:04.777Z,102592.61
2019-05-14T23:12:22.343Z,102592.61
2019-05-14T23:15:30.194Z,102596.00
2019-05-14T23:18:38.815Z,102596.01
2019-05-14T23:21:48.428Z,102586.20
2019-05-14T23:25:05.774Z,102593.01
2019-05-14T23:28:13.547Z,102592.95
2019-05-14T23:31:21.385Z,102585.31
2019-05-14T23:34:29.246Z,102592.08
2019-05-14T23:37:36.917Z,102581.03
2019-05-14T23:40:44.333Z,102589.50
2019-05-14T23:44:08.396Z,102583.16
2019-05-14T23:47:15.939Z,102583.13
2019-05-14T23:50:32.687Z,102581.86
2019-05-14T23:53:49.399Z,102577.58
2019-05-14T23:57:06.027Z,102577.58
